sensor_id;sensor_type;location;lat;lon;timestamp;P1;durP1;ratioP1;P2;durP2;ratioP2
64907;SDS011;64365;-1.756;110.040;2023-03-26T00:00:05;11.75;;;5.70;;
64907;SDS011;64365;-1.756;110.040;2023-03-26T00:02:38;15.32;;;5.13;;
64907;SDS011;64365;-1.756;110.040;2023-03-26T00:05:06;17.15;;;6.13;;
64907;SDS011;64365;-1.756;110.040;2023-03-26T00:07:34;11.98;;;5.60;;
64907;SDS011;64365;-1.756;110.040;2023-03-26T00:10:01;16.25;;;5.78;;
64907;SDS011;64365;-1.756;110.040;2023-03-26T00:12:27;13.38;;;5.78;;
64907;SDS011;64365;-1.756;110.040;2023-03-26T00:14:54;12.57;;;5.78;;
64907;SDS011;64365;-1.756;110.040;2023-03-26T00:17:22;13.35;;;5.40;;
64907;SDS011;64365;-1.756;110.040;2023-03-26T00:19:49;16.77;;;7.22;;
64907;SDS011;64365;-1.756;110.040;2023-03-26T00:22:17;14.20;;;5.50;;
64907;SDS011;64365;-1.756;110.040;2023-03-26T00:24:44;20.35;;;7.05;;
64907;SDS011;64365;-1.756;110.040;2023-03-26T00:27:13;24.88;;;7.18;;
64907;SDS011;64365;-1.756;110.040;2023-03-26T00:29:39;14.07;;;6.35;;
64907;SDS011;64365;-1.756;110.040;2023-03-26T00:32:06;18.70;;;6.32;;
64907;SDS011;64365;-1.756;110.040;2023-03-26T00:34:34;16.58;;;6.22;;
64907;SDS011;64365;-1.756;110.040;2023-03-26T00:37:00;16.48;;;6.97;;
64907;SDS011;64365;-1.756;110.040;2023-03-26T00:39:27;13.35;;;6.20;;
64907;SDS011;64365;-1.756;110.040;2023-03-26T00:41:59;14.23;;;6.38;;
64907;SDS011;64365;-1.756;110.040;2023-03-26T00:44:31;14.35;;;6.03;;
64907;SDS011;64365;-1.756;110.040;2023-03-26T00:46:58;21.40;;;7.03;;
64907;SDS011;64365;-1.756;110.040;2023-03-26T00:49:25;13.45;;;6.20;;
64907;SDS011;64365;-1.756;110.040;2023-03-26T00:51:53;15.13;;;6.72;;
64907;SDS011;64365;-1.756;110.040;2023-03-26T00:54:19;12.30;;;6.47;;
64907;SDS011;64365;-1.756;110.040;2023-03-26T00:56:46;15.02;;;5.93;;
64907;SDS011;64365;-1.756;110.040;2023-03-26T00:59:12;17.40;;;5.97;;
64907;SDS011;64365;-1.756;110.040;2023-03-26T01:01:39;14.98;;;6.47;;
64907;SDS011;64365;-1.756;110.040;2023-03-26T01:07:00;10.93;;;5.85;;
64907;SDS011;64365;-1.756;110.040;2023-03-26T01:09:33;13.10;;;6.03;;
64907;SDS011;64365;-1.756;110.040;2023-03-26T01:12:03;16.33;;;6.30;;
64907;SDS011;64365;-1.756;110.040;2023-03-26T01:14:33;12.35;;;6.15;;
64907;SDS011;64365;-1.756;110.040;2023-03-26T01:17:01;13.35;;;6.57;;
64907;SDS011;64365;-1.756;110.040;2023-03-26T01:19:32;15.63;;;6.65;;
64907;SDS011;64365;-1.756;110.040;2023-03-26T01:24:36;14.50;;;6.70;;
64907;SDS011;64365;-1.756;110.040;2023-03-26T01:27:13;13.20;;;6.72;;
64907;SDS011;64365;-1.756;110.040;2023-03-26T01:29:51;12.82;;;7.35;;
64907;SDS011;64365;-1.756;110.040;2023-03-26T01:32:41;12.45;;;6.88;;
64907;SDS011;64365;-1.756;110.040;2023-03-26T01:35:21;12.57;;;6.43;;
64907;SDS011;64365;-1.756;110.040;2023-03-26T01:38:01;17.13;;;7.35;;
64907;SDS011;64365;-1.756;110.040;2023-03-26T01:40:46;15.88;;;8.10;;
64907;SDS011;64365;-1.756;110.040;2023-03-26T01:43:16;15.57;;;6.97;;
64907;SDS011;64365;-1.756;110.040;2023-03-26T01:45:50;13.60;;;7.60;;
64907;SDS011;64365;-1.756;110.040;2023-03-26T01:48:17;15.05;;;8.30;;
64907;SDS011;64365;-1.756;110.040;2023-03-26T01:50:44;14.65;;;7.22;;
64907;SDS011;64365;-1.756;110.040;2023-03-26T01:53:12;15.38;;;8.25;;
64907;SDS011;64365;-1.756;110.040;2023-03-26T01:55:41;16.25;;;8.05;;
64907;SDS011;64365;-1.756;110.040;2023-03-26T01:58:21;13.82;;;8.30;;
64907;SDS011;64365;-1.756;110.040;2023-03-26T02:00:56;16.52;;;8.15;;
64907;SDS011;64365;-1.756;110.040;2023-03-26T02:03:32;16.55;;;7.95;;
64907;SDS011;64365;-1.756;110.040;2023-03-26T02:06:05;22.00;;;8.63;;
64907;SDS011;64365;-1.756;110.040;2023-03-26T02:08:40;23.15;;;8.48;;
64907;SDS011;64365;-1.756;110.040;2023-03-26T02:11:13;15.10;;;8.57;;
64907;SDS011;64365;-1.756;110.040;2023-03-26T02:13:41;24.55;;;8.10;;
64907;SDS011;64365;-1.756;110.040;2023-03-26T02:16:10;17.75;;;8.52;;
64907;SDS011;64365;-1.756;110.040;2023-03-26T02:18:40;16.70;;;10.15;;
64907;SDS011;64365;-1.756;110.040;2023-03-26T02:21:09;18.63;;;8.73;;
64907;SDS011;64365;-1.756;110.040;2023-03-26T02:23:38;16.45;;;9.38;;
64907;SDS011;64365;-1.756;110.040;2023-03-26T02:26:06;17.05;;;7.82;;
64907;SDS011;64365;-1.756;110.040;2023-03-26T02:28:35;17.60;;;9.15;;
64907;SDS011;64365;-1.756;110.040;2023-03-26T02:31:02;18.42;;;10.50;;
64907;SDS011;64365;-1.756;110.040;2023-03-26T02:33:29;20.58;;;9.00;;
64907;SDS011;64365;-1.756;110.040;2023-03-26T02:35:57;17.35;;;9.02;;
64907;SDS011;64365;-1.756;110.040;2023-03-26T02:38:26;22.27;;;11.05;;
64907;SDS011;64365;-1.756;110.040;2023-03-26T02:40:53;14.63;;;8.95;;
64907;SDS011;64365;-1.756;110.040;2023-03-26T02:43:19;21.30;;;9.48;;
64907;SDS011;64365;-1.756;110.040;2023-03-26T02:45:48;20.63;;;8.85;;
64907;SDS011;64365;-1.756;110.040;2023-03-26T02:48:14;14.38;;;8.48;;
64907;SDS011;64365;-1.756;110.040;2023-03-26T02:50:41;15.98;;;8.90;;
64907;SDS011;64365;-1.756;110.040;2023-03-26T02:53:08;20.85;;;9.68;;
64907;SDS011;64365;-1.756;110.040;2023-03-26T02:55:35;14.77;;;7.85;;
64907;SDS011;64365;-1.756;110.040;2023-03-26T02:58:02;18.50;;;9.73;;
64907;SDS011;64365;-1.756;110.040;2023-03-26T03:00:28;18.13;;;8.57;;
64907;SDS011;64365;-1.756;110.040;2023-03-26T03:02:57;19.23;;;9.20;;
64907;SDS011;64365;-1.756;110.040;2023-03-26T03:05:24;16.42;;;8.70;;
64907;SDS011;64365;-1.756;110.040;2023-03-26T03:07:51;20.08;;;9.88;;
64907;SDS011;64365;-1.756;110.040;2023-03-26T03:10:22;18.98;;;9.38;;
64907;SDS011;64365;-1.756;110.040;2023-03-26T03:12:50;24.50;;;9.70;;
64907;SDS011;64365;-1.756;110.040;2023-03-26T03:15:16;23.38;;;9.65;;
64907;SDS011;64365;-1.756;110.040;2023-03-26T03:17:43;25.02;;;11.13;;
64907;SDS011;64365;-1.756;110.040;2023-03-26T03:20:11;21.42;;;9.80;;
64907;SDS011;64365;-1.756;110.040;2023-03-26T03:22:39;23.63;;;10.70;;
64907;SDS011;64365;-1.756;110.040;2023-03-26T03:25:06;26.40;;;9.73;;
64907;SDS011;64365;-1.756;110.040;2023-03-26T03:27:38;24.58;;;10.45;;
64907;SDS011;64365;-1.756;110.040;2023-03-26T03:30:05;20.35;;;9.70;;
64907;SDS011;64365;-1.756;110.040;2023-03-26T03:32:33;16.10;;;8.52;;
64907;SDS011;64365;-1.756;110.040;2023-03-26T03:34:59;21.60;;;10.30;;
64907;SDS011;64365;-1.756;110.040;2023-03-26T03:37:27;21.10;;;8.77;;
64907;SDS011;64365;-1.756;110.040;2023-03-26T03:39:54;17.77;;;9.82;;
64907;SDS011;64365;-1.756;110.040;2023-03-26T03:42:20;23.65;;;9.18;;
64907;SDS011;64365;-1.756;110.040;2023-03-26T03:44:47;25.35;;;10.63;;
64907;SDS011;64365;-1.756;110.040;2023-03-26T03:47:13;23.30;;;9.95;;
64907;SDS011;64365;-1.756;110.040;2023-03-26T03:49:40;21.00;;;9.20;;
64907;SDS011;64365;-1.756;110.040;2023-03-26T03:52:06;19.80;;;8.32;;
64907;SDS011;64365;-1.756;110.040;2023-03-26T03:54:34;16.63;;;8.50;;
64907;SDS011;64365;-1.756;110.040;2023-03-26T03:57:01;23.38;;;9.50;;
64907;SDS011;64365;-1.756;110.040;2023-03-26T03:59:28;34.63;;;9.05;;
64907;SDS011;64365;-1.756;110.040;2023-03-26T04:01:54;19.80;;;10.35;;
64907;SDS011;64365;-1.756;110.040;2023-03-26T04:04:21;23.77;;;9.73;;
64907;SDS011;64365;-1.756;110.040;2023-03-26T04:06:49;24.40;;;9.88;;
64907;SDS011;64365;-1.756;110.040;2023-03-26T04:09:16;27.65;;;10.60;;
64907;SDS011;64365;-1.756;110.040;2023-03-26T04:11:44;21.83;;;8.57;;
64907;SDS011;64365;-1.756;110.040;2023-03-26T04:14:11;19.00;;;9.05;;
64907;SDS011;64365;-1.756;110.040;2023-03-26T04:16:37;19.00;;;9.10;;
64907;SDS011;64365;-1.756;110.040;2023-03-26T04:19:04;28.52;;;9.95;;
64907;SDS011;64365;-1.756;110.040;2023-03-26T04:21:30;18.40;;;9.52;;
64907;SDS011;64365;-1.756;110.040;2023-03-26T04:24:01;24.88;;;10.57;;
64907;SDS011;64365;-1.756;110.040;2023-03-26T04:26:29;22.13;;;9.85;;
64907;SDS011;64365;-1.756;110.040;2023-03-26T04:28:58;27.10;;;11.20;;
64907;SDS011;64365;-1.756;110.040;2023-03-26T04:31:28;27.20;;;10.60;;
64907;SDS011;64365;-1.756;110.040;2023-03-26T04:33:56;25.48;;;10.40;;
64907;SDS011;64365;-1.756;110.040;2023-03-26T04:38:58;25.58;;;9.98;;
64907;SDS011;64365;-1.756;110.040;2023-03-26T04:41:28;32.60;;;11.57;;
64907;SDS011;64365;-1.756;110.040;2023-03-26T04:43:57;30.23;;;10.55;;
64907;SDS011;64365;-1.756;110.040;2023-03-26T04:46:25;33.55;;;10.68;;
64907;SDS011;64365;-1.756;110.040;2023-03-26T04:48:53;25.80;;;10.63;;
64907;SDS011;64365;-1.756;110.040;2023-03-26T04:51:22;30.13;;;10.75;;
64907;SDS011;64365;-1.756;110.040;2023-03-26T04:53:51;26.27;;;10.40;;
64907;SDS011;64365;-1.756;110.040;2023-03-26T04:56:23;33.78;;;13.95;;
64907;SDS011;64365;-1.756;110.040;2023-03-26T04:58:56;29.73;;;11.35;;
64907;SDS011;64365;-1.756;110.040;2023-03-26T05:01:26;26.48;;;10.35;;
64907;SDS011;64365;-1.756;110.040;2023-03-26T05:03:54;25.33;;;9.88;;
64907;SDS011;64365;-1.756;110.040;2023-03-26T05:06:22;26.40;;;11.35;;
64907;SDS011;64365;-1.756;110.040;2023-03-26T05:08:52;34.75;;;11.70;;
64907;SDS011;64365;-1.756;110.040;2023-03-26T05:11:18;25.27;;;10.50;;
64907;SDS011;64365;-1.756;110.040;2023-03-26T05:13:45;35.00;;;12.88;;
64907;SDS011;64365;-1.756;110.040;2023-03-26T05:16:13;25.48;;;10.90;;
64907;SDS011;64365;-1.756;110.040;2023-03-26T05:18:39;25.40;;;10.82;;
64907;SDS011;64365;-1.756;110.040;2023-03-26T05:21:06;29.88;;;10.85;;
64907;SDS011;64365;-1.756;110.040;2023-03-26T05:23:33;37.40;;;11.38;;
64907;SDS011;64365;-1.756;110.040;2023-03-26T05:25:59;31.35;;;11.98;;
64907;SDS011;64365;-1.756;110.040;2023-03-26T05:28:26;41.33;;;13.10;;
64907;SDS011;64365;-1.756;110.040;2023-03-26T05:30:53;30.25;;;10.70;;
64907;SDS011;64365;-1.756;110.040;2023-03-26T05:33:21;37.85;;;11.48;;
64907;SDS011;64365;-1.756;110.040;2023-03-26T05:35:57;44.17;;;12.75;;
64907;SDS011;64365;-1.756;110.040;2023-03-26T05:38:25;33.08;;;11.50;;
64907;SDS011;64365;-1.756;110.040;2023-03-26T05:40:55;31.85;;;12.02;;
64907;SDS011;64365;-1.756;110.040;2023-03-26T05:43:23;44.67;;;12.75;;
64907;SDS011;64365;-1.756;110.040;2023-03-26T05:45:50;38.58;;;11.75;;
64907;SDS011;64365;-1.756;110.040;2023-03-26T05:48:16;32.30;;;11.45;;
64907;SDS011;64365;-1.756;110.040;2023-03-26T05:50:44;37.90;;;12.55;;
64907;SDS011;64365;-1.756;110.040;2023-03-26T05:53:15;39.55;;;12.63;;
64907;SDS011;64365;-1.756;110.040;2023-03-26T05:55:43;36.13;;;12.50;;
64907;SDS011;64365;-1.756;110.040;2023-03-26T05:58:11;40.47;;;12.70;;
64907;SDS011;64365;-1.756;110.040;2023-03-26T06:00:37;35.10;;;10.40;;
64907;SDS011;64365;-1.756;110.040;2023-03-26T06:03:06;30.73;;;10.38;;
64907;SDS011;64365;-1.756;110.040;2023-03-26T06:05:36;44.00;;;13.45;;
64907;SDS011;64365;-1.756;110.040;2023-03-26T06:08:06;32.22;;;10.77;;
64907;SDS011;64365;-1.756;110.040;2023-03-26T06:10:32;32.58;;;10.77;;
64907;SDS011;64365;-1.756;110.040;2023-03-26T06:13:02;35.97;;;11.05;;
64907;SDS011;64365;-1.756;110.040;2023-03-26T06:15:29;29.75;;;12.23;;
64907;SDS011;64365;-1.756;110.040;2023-03-26T06:17:55;38.10;;;12.75;;
64907;SDS011;64365;-1.756;110.040;2023-03-26T06:20:22;37.55;;;11.68;;
64907;SDS011;64365;-1.756;110.040;2023-03-26T06:22:49;38.05;;;11.88;;
64907;SDS011;64365;-1.756;110.040;2023-03-26T06:25:17;40.00;;;13.75;;
64907;SDS011;64365;-1.756;110.040;2023-03-26T06:27:43;42.08;;;12.70;;
64907;SDS011;64365;-1.756;110.040;2023-03-26T06:30:10;41.75;;;13.00;;
64907;SDS011;64365;-1.756;110.040;2023-03-26T06:32:37;34.90;;;10.75;;
64907;SDS011;64365;-1.756;110.040;2023-03-26T06:35:04;37.40;;;13.30;;
64907;SDS011;64365;-1.756;110.040;2023-03-26T06:37:31;46.28;;;13.55;;
64907;SDS011;64365;-1.756;110.040;2023-03-26T06:39:58;33.70;;;14.30;;
64907;SDS011;64365;-1.756;110.040;2023-03-26T06:42:26;55.92;;;16.50;;
64907;SDS011;64365;-1.756;110.040;2023-03-26T06:44:52;44.20;;;13.45;;
64907;SDS011;64365;-1.756;110.040;2023-03-26T06:47:19;45.25;;;13.73;;
64907;SDS011;64365;-1.756;110.040;2023-03-26T06:49:46;65.10;;;14.52;;
64907;SDS011;64365;-1.756;110.040;2023-03-26T06:52:12;46.88;;;15.85;;
64907;SDS011;64365;-1.756;110.040;2023-03-26T06:54:39;52.05;;;14.65;;
64907;SDS011;64365;-1.756;110.040;2023-03-26T06:57:05;60.03;;;16.52;;
64907;SDS011;64365;-1.756;110.040;2023-03-26T06:59:33;48.88;;;14.05;;
64907;SDS011;64365;-1.756;110.040;2023-03-26T07:02:00;53.47;;;15.50;;
64907;SDS011;64365;-1.756;110.040;2023-03-26T07:04:26;65.80;;;17.73;;
64907;SDS011;64365;-1.756;110.040;2023-03-26T07:06:53;52.17;;;15.02;;
64907;SDS011;64365;-1.756;110.040;2023-03-26T07:09:20;57.08;;;16.48;;
64907;SDS011;64365;-1.756;110.040;2023-03-26T07:11:46;59.00;;;16.27;;
64907;SDS011;64365;-1.756;110.040;2023-03-26T07:14:13;59.13;;;17.77;;
64907;SDS011;64365;-1.756;110.040;2023-03-26T07:16:41;64.47;;;18.15;;
64907;SDS011;64365;-1.756;110.040;2023-03-26T07:19:07;56.58;;;18.83;;
64907;SDS011;64365;-1.756;110.040;2023-03-26T07:21:34;51.67;;;16.85;;
64907;SDS011;64365;-1.756;110.040;2023-03-26T07:24:01;55.10;;;19.20;;
64907;SDS011;64365;-1.756;110.040;2023-03-26T07:26:30;50.03;;;17.15;;
64907;SDS011;64365;-1.756;110.040;2023-03-26T07:29:03;50.28;;;17.75;;
64907;SDS011;64365;-1.756;110.040;2023-03-26T07:31:36;52.92;;;16.00;;
64907;SDS011;64365;-1.756;110.040;2023-03-26T07:34:16;39.20;;;15.75;;
64907;SDS011;64365;-1.756;110.040;2023-03-26T07:36:56;46.13;;;15.07;;
64907;SDS011;64365;-1.756;110.040;2023-03-26T07:39:34;45.00;;;15.70;;
64907;SDS011;64365;-1.756;110.040;2023-03-26T07:42:11;34.38;;;12.40;;
64907;SDS011;64365;-1.756;110.040;2023-03-26T07:44:52;38.75;;;13.30;;
64907;SDS011;64365;-1.756;110.040;2023-03-26T07:47:26;27.27;;;12.90;;
64907;SDS011;64365;-1.756;110.040;2023-03-26T07:49:55;32.15;;;11.60;;
64907;SDS011;64365;-1.756;110.040;2023-03-26T07:52:22;26.85;;;12.38;;
64907;SDS011;64365;-1.756;110.040;2023-03-26T07:54:50;28.38;;;11.50;;
64907;SDS011;64365;-1.756;110.040;2023-03-26T07:57:18;25.25;;;11.60;;
64907;SDS011;64365;-1.756;110.040;2023-03-26T07:59:51;27.70;;;12.68;;
64907;SDS011;64365;-1.756;110.040;2023-03-26T08:02:39;31.83;;;13.57;;
64907;SDS011;64365;-1.756;110.040;2023-03-26T08:05:15;30.33;;;13.48;;
64907;SDS011;64365;-1.756;110.040;2023-03-26T08:07:59;22.58;;;12.02;;
64907;SDS011;64365;-1.756;110.040;2023-03-26T08:10:34;24.60;;;11.48;;
64907;SDS011;64365;-1.756;110.040;2023-03-26T08:13:16;21.88;;;9.80;;
64907;SDS011;64365;-1.756;110.040;2023-03-26T08:15:52;27.75;;;9.52;;
64907;SDS011;64365;-1.756;110.040;2023-03-26T08:18:33;18.63;;;9.38;;
64907;SDS011;64365;-1.756;110.040;2023-03-26T08:21:07;20.15;;;8.02;;
64907;SDS011;64365;-1.756;110.040;2023-03-26T08:23:39;18.95;;;8.05;;
64907;SDS011;64365;-1.756;110.040;2023-03-26T08:26:18;20.33;;;7.78;;
64907;SDS011;64365;-1.756;110.040;2023-03-26T08:28:57;19.35;;;8.20;;
64907;SDS011;64365;-1.756;110.040;2023-03-26T08:31:30;21.27;;;7.82;;
64907;SDS011;64365;-1.756;110.040;2023-03-26T08:34:00;28.15;;;8.57;;
64907;SDS011;64365;-1.756;110.040;2023-03-26T08:36:27;18.48;;;7.72;;
64907;SDS011;64365;-1.756;110.040;2023-03-26T08:38:54;19.35;;;8.13;;
64907;SDS011;64365;-1.756;110.040;2023-03-26T08:41:28;16.98;;;7.80;;
64907;SDS011;64365;-1.756;110.040;2023-03-26T08:44:20;20.15;;;7.68;;
64907;SDS011;64365;-1.756;110.040;2023-03-26T08:47:26;18.48;;;6.95;;
64907;SDS011;64365;-1.756;110.040;2023-03-26T08:50:12;19.52;;;6.90;;
64907;SDS011;64365;-1.756;110.040;2023-03-26T08:53:13;11.77;;;6.68;;
64907;SDS011;64365;-1.756;110.040;2023-03-26T08:56:02;12.68;;;6.72;;
64907;SDS011;64365;-1.756;110.040;2023-03-26T08:58:47;20.38;;;7.38;;
64907;SDS011;64365;-1.756;110.040;2023-03-26T09:01:36;17.98;;;7.07;;
64907;SDS011;64365;-1.756;110.040;2023-03-26T09:19:45;15.63;;;7.75;;
64907;SDS011;64365;-1.756;110.040;2023-03-26T09:25:52;15.77;;;6.93;;
64907;SDS011;64365;-1.756;110.040;2023-03-26T09:34:51;13.67;;;6.80;;
64907;SDS011;64365;-1.756;110.040;2023-03-26T09:37:49;16.90;;;8.48;;
64907;SDS011;64365;-1.756;110.040;2023-03-26T09:40:25;14.55;;;8.00;;
64907;SDS011;64365;-1.756;110.040;2023-03-26T09:43:05;14.85;;;7.53;;
64907;SDS011;64365;-1.756;110.040;2023-03-26T09:45:55;16.73;;;8.15;;
64907;SDS011;64365;-1.756;110.040;2023-03-26T09:48:37;13.70;;;6.30;;
64907;SDS011;64365;-1.756;110.040;2023-03-26T09:54:38;12.90;;;6.10;;
64907;SDS011;64365;-1.756;110.040;2023-03-26T09:57:20;17.38;;;6.93;;
64907;SDS011;64365;-1.756;110.040;2023-03-26T10:00:00;16.60;;;6.55;;
64907;SDS011;64365;-1.756;110.040;2023-03-26T10:02:44;26.73;;;8.55;;
64907;SDS011;64365;-1.756;110.040;2023-03-26T10:05:26;30.40;;;6.68;;
64907;SDS011;64365;-1.756;110.040;2023-03-26T10:08:11;18.58;;;5.80;;
64907;SDS011;64365;-1.756;110.040;2023-03-26T10:10:52;13.23;;;5.80;;
64907;SDS011;64365;-1.756;110.040;2023-03-26T10:13:25;17.05;;;5.45;;
64907;SDS011;64365;-1.756;110.040;2023-03-26T10:16:09;14.20;;;5.50;;
64907;SDS011;64365;-1.756;110.040;2023-03-26T10:18:47;21.70;;;6.15;;
64907;SDS011;64365;-1.756;110.040;2023-03-26T10:21:27;16.38;;;5.85;;
64907;SDS011;64365;-1.756;110.040;2023-03-26T10:27:14;16.25;;;5.78;;
64907;SDS011;64365;-1.756;110.040;2023-03-26T10:29:59;17.45;;;5.68;;
64907;SDS011;64365;-1.756;110.040;2023-03-26T10:32:32;12.93;;;5.00;;
64907;SDS011;64365;-1.756;110.040;2023-03-26T10:35:14;15.05;;;5.60;;
64907;SDS011;64365;-1.756;110.040;2023-03-26T10:37:56;18.00;;;5.85;;
64907;SDS011;64365;-1.756;110.040;2023-03-26T10:40:33;24.75;;;6.20;;
64907;SDS011;64365;-1.756;110.040;2023-03-26T10:43:13;14.75;;;5.03;;
64907;SDS011;64365;-1.756;110.040;2023-03-26T10:46:03;17.23;;;6.05;;
64907;SDS011;64365;-1.756;110.040;2023-03-26T10:48:52;17.08;;;5.55;;
64907;SDS011;64365;-1.756;110.040;2023-03-26T10:51:43;15.77;;;6.43;;
64907;SDS011;64365;-1.756;110.040;2023-03-26T10:54:18;24.48;;;6.95;;
64907;SDS011;64365;-1.756;110.040;2023-03-26T10:56:51;15.60;;;5.60;;
64907;SDS011;64365;-1.756;110.040;2023-03-26T10:59:20;15.27;;;6.00;;
64907;SDS011;64365;-1.756;110.040;2023-03-26T11:01:51;24.73;;;5.78;;
64907;SDS011;64365;-1.756;110.040;2023-03-26T11:04:30;14.63;;;5.72;;
64907;SDS011;64365;-1.756;110.040;2023-03-26T11:07:09;20.65;;;5.30;;
64907;SDS011;64365;-1.756;110.040;2023-03-26T11:09:47;24.25;;;6.32;;
64907;SDS011;64365;-1.756;110.040;2023-03-26T11:12:25;18.95;;;7.95;;
64907;SDS011;64365;-1.756;110.040;2023-03-26T11:15:04;19.38;;;5.80;;
64907;SDS011;64365;-1.756;110.040;2023-03-26T11:17:44;18.08;;;5.90;;
64907;SDS011;64365;-1.756;110.040;2023-03-26T11:20:24;21.92;;;5.70;;
64907;SDS011;64365;-1.756;110.040;2023-03-26T11:23:02;26.67;;;6.60;;
64907;SDS011;64365;-1.756;110.040;2023-03-26T11:25:39;18.58;;;6.15;;
64907;SDS011;64365;-1.756;110.040;2023-03-26T11:28:28;23.50;;;6.90;;
64907;SDS011;64365;-1.756;110.040;2023-03-26T11:31:07;17.05;;;5.53;;
64907;SDS011;64365;-1.756;110.040;2023-03-26T11:33:44;21.70;;;6.43;;
64907;SDS011;64365;-1.756;110.040;2023-03-26T11:36:15;26.73;;;7.38;;
64907;SDS011;64365;-1.756;110.040;2023-03-26T11:38:45;11.63;;;4.60;;
64907;SDS011;64365;-1.756;110.040;2023-03-26T11:41:13;18.17;;;6.00;;
64907;SDS011;64365;-1.756;110.040;2023-03-26T11:43:43;17.33;;;5.20;;
64907;SDS011;64365;-1.756;110.040;2023-03-26T11:46:13;20.48;;;6.05;;
64907;SDS011;64365;-1.756;110.040;2023-03-26T11:48:45;16.02;;;4.72;;
64907;SDS011;64365;-1.756;110.040;2023-03-26T11:51:15;15.93;;;4.93;;
64907;SDS011;64365;-1.756;110.040;2023-03-26T11:53:47;20.20;;;5.83;;
64907;SDS011;64365;-1.756;110.040;2023-03-26T11:56:15;14.88;;;4.97;;
64907;SDS011;64365;-1.756;110.040;2023-03-26T11:58:50;13.32;;;5.47;;
64907;SDS011;64365;-1.756;110.040;2023-03-26T12:01:20;17.58;;;5.18;;
64907;SDS011;64365;-1.756;110.040;2023-03-26T12:03:56;18.15;;;6.22;;
64907;SDS011;64365;-1.756;110.040;2023-03-26T12:06:28;18.08;;;6.50;;
64907;SDS011;64365;-1.756;110.040;2023-03-26T12:08:57;19.42;;;6.38;;
64907;SDS011;64365;-1.756;110.040;2023-03-26T12:11:24;16.38;;;5.45;;
64907;SDS011;64365;-1.756;110.040;2023-03-26T12:13:54;14.60;;;5.55;;
64907;SDS011;64365;-1.756;110.040;2023-03-26T12:16:25;15.57;;;6.82;;
64907;SDS011;64365;-1.756;110.040;2023-03-26T12:19:01;14.55;;;4.75;;
64907;SDS011;64365;-1.756;110.040;2023-03-26T12:21:29;18.58;;;6.13;;
64907;SDS011;64365;-1.756;110.040;2023-03-26T12:24:13;17.30;;;6.88;;
64907;SDS011;64365;-1.756;110.040;2023-03-26T12:26:55;20.80;;;5.50;;
64907;SDS011;64365;-1.756;110.040;2023-03-26T12:29:26;13.15;;;4.88;;
64907;SDS011;64365;-1.756;110.040;2023-03-26T12:31:54;19.45;;;4.88;;
64907;SDS011;64365;-1.756;110.040;2023-03-26T12:34:27;16.20;;;4.85;;
64907;SDS011;64365;-1.756;110.040;2023-03-26T12:36:58;18.83;;;4.70;;
64907;SDS011;64365;-1.756;110.040;2023-03-26T12:39:35;11.45;;;5.72;;
64907;SDS011;64365;-1.756;110.040;2023-03-26T12:42:03;20.70;;;6.50;;
64907;SDS011;64365;-1.756;110.040;2023-03-26T12:44:43;20.73;;;5.47;;
64907;SDS011;64365;-1.756;110.040;2023-03-26T12:47:14;15.88;;;4.60;;
64907;SDS011;64365;-1.756;110.040;2023-03-26T12:52:20;20.65;;;5.30;;
64907;SDS011;64365;-1.756;110.040;2023-03-26T12:54:57;16.98;;;5.53;;
64907;SDS011;64365;-1.756;110.040;2023-03-26T12:57:30;13.90;;;4.68;;
64907;SDS011;64365;-1.756;110.040;2023-03-26T13:00:11;16.55;;;5.50;;
64907;SDS011;64365;-1.756;110.040;2023-03-26T13:02:57;11.90;;;4.20;;
64907;SDS011;64365;-1.756;110.040;2023-03-26T13:05:48;13.93;;;4.83;;
64907;SDS011;64365;-1.756;110.040;2023-03-26T13:11:26;15.55;;;5.07;;
64907;SDS011;64365;-1.756;110.040;2023-03-26T13:14:00;16.13;;;5.07;;
64907;SDS011;64365;-1.756;110.040;2023-03-26T13:16:39;14.60;;;4.78;;
64907;SDS011;64365;-1.756;110.040;2023-03-26T13:19:12;12.03;;;4.73;;
64907;SDS011;64365;-1.756;110.040;2023-03-26T13:21:48;12.52;;;4.60;;
64907;SDS011;64365;-1.756;110.040;2023-03-26T13:24:27;11.73;;;4.85;;
64907;SDS011;64365;-1.756;110.040;2023-03-26T13:27:04;12.85;;;5.32;;
64907;SDS011;64365;-1.756;110.040;2023-03-26T13:29:43;18.02;;;4.97;;
64907;SDS011;64365;-1.756;110.040;2023-03-26T13:32:21;11.38;;;5.57;;
64907;SDS011;64365;-1.756;110.040;2023-03-26T13:35:02;10.68;;;3.90;;
64907;SDS011;64365;-1.756;110.040;2023-03-26T13:37:40;11.80;;;4.15;;
64907;SDS011;64365;-1.756;110.040;2023-03-26T13:40:15;15.85;;;4.80;;
64907;SDS011;64365;-1.756;110.040;2023-03-26T13:42:51;14.63;;;5.55;;
64907;SDS011;64365;-1.756;110.040;2023-03-26T13:45:35;18.58;;;6.07;;
64907;SDS011;64365;-1.756;110.040;2023-03-26T13:48:11;22.27;;;5.78;;
64907;SDS011;64365;-1.756;110.040;2023-03-26T13:50:44;13.70;;;5.70;;
64907;SDS011;64365;-1.756;110.040;2023-03-26T13:53:21;9.27;;;3.72;;
64907;SDS011;64365;-1.756;110.040;2023-03-26T13:55:52;14.98;;;5.65;;
64907;SDS011;64365;-1.756;110.040;2023-03-26T13:58:23;17.02;;;5.57;;
64907;SDS011;64365;-1.756;110.040;2023-03-26T14:00:57;12.18;;;4.38;;
64907;SDS011;64365;-1.756;110.040;2023-03-26T14:03:30;10.95;;;4.07;;
64907;SDS011;64365;-1.756;110.040;2023-03-26T14:06:05;11.65;;;4.35;;
64907;SDS011;64365;-1.756;110.040;2023-03-26T14:08:38;16.13;;;5.72;;
64907;SDS011;64365;-1.756;110.040;2023-03-26T14:11:10;11.27;;;4.43;;
64907;SDS011;64365;-1.756;110.040;2023-03-26T14:13:43;13.50;;;5.38;;
64907;SDS011;64365;-1.756;110.040;2023-03-26T14:16:15;13.30;;;4.78;;
64907;SDS011;64365;-1.756;110.040;2023-03-26T14:18:48;10.75;;;4.13;;
64907;SDS011;64365;-1.756;110.040;2023-03-26T14:21:46;12.60;;;5.43;;
64907;SDS011;64365;-1.756;110.040;2023-03-26T14:24:25;13.35;;;4.05;;
64907;SDS011;64365;-1.756;110.040;2023-03-26T14:33:02;12.90;;;4.45;;
64907;SDS011;64365;-1.756;110.040;2023-03-26T14:35:45;15.32;;;4.40;;
64907;SDS011;64365;-1.756;110.040;2023-03-26T14:38:29;10.70;;;4.50;;
64907;SDS011;64365;-1.756;110.040;2023-03-26T14:41:14;12.10;;;4.13;;
64907;SDS011;64365;-1.756;110.040;2023-03-26T14:47:02;12.52;;;5.00;;
64907;SDS011;64365;-1.756;110.040;2023-03-26T14:49:43;21.35;;;5.07;;
64907;SDS011;64365;-1.756;110.040;2023-03-26T14:52:21;15.70;;;5.35;;
64907;SDS011;64365;-1.756;110.040;2023-03-26T14:54:57;12.60;;;3.78;;
64907;SDS011;64365;-1.756;110.040;2023-03-26T15:13:06;15.65;;;4.70;;
64907;SDS011;64365;-1.756;110.040;2023-03-26T15:16:05;11.82;;;5.00;;
64907;SDS011;64365;-1.756;110.040;2023-03-26T15:24:57;16.02;;;4.07;;
64907;SDS011;64365;-1.756;110.040;2023-03-26T15:27:57;12.10;;;4.20;;
64907;SDS011;64365;-1.756;110.040;2023-03-26T15:40:27;11.73;;;3.95;;
64907;SDS011;64365;-1.756;110.040;2023-03-26T15:43:02;11.63;;;4.18;;
64907;SDS011;64365;-1.756;110.040;2023-03-26T15:45:37;10.45;;;4.18;;
64907;SDS011;64365;-1.756;110.040;2023-03-26T15:51:05;9.73;;;4.17;;
64907;SDS011;64365;-1.756;110.040;2023-03-26T15:53:43;12.25;;;4.18;;
64907;SDS011;64365;-1.756;110.040;2023-03-26T15:56:24;14.75;;;5.00;;
64907;SDS011;64365;-1.756;110.040;2023-03-26T15:59:01;13.68;;;4.18;;
64907;SDS011;64365;-1.756;110.040;2023-03-26T16:01:48;17.02;;;4.88;;
64907;SDS011;64365;-1.756;110.040;2023-03-26T16:04:28;14.45;;;4.15;;
64907;SDS011;64365;-1.756;110.040;2023-03-26T16:07:05;11.27;;;4.15;;